<?xml version="1.0" encoding="UTF-8" standalone="no" ?>
<gpx xmlns="http://www.topografix.com/GPX/1/1" xmlns:xsi="http://www.w3.org/2001/XMLSchema-instance" xsi:schemaLocation="http://www.topografix.com/GPX/1/1 http://www.topografix.com/GPX/1/1/gpx.xsd" version="1.1" creator="VisuGPX - https://www.visugpx.com">
  <metadata>
    <name>Passerelles himalayennes du Monteynard sans le bateau</name>
    <desc><![CDATA[Echelles himalayènes sans traversée en bateau]]></desc>
  </metadata>
  <wpt lat="44.87274" lon="5.70071">
    <ele>553</ele>
    <name><![CDATA[Parking virage en épingle de la D116a. Vers la]]></name>
  </wpt>
  <wpt lat="44.87316" lon="5.70409">
    <ele>552</ele>
    <name><![CDATA[Carrefour piste-chemin]]></name>
  </wpt>
  <wpt lat="44.86789" lon="5.70762">
    <ele>535</ele>
    <name><![CDATA[Passerelle du]]></name>
  </wpt>
  <wpt lat="44.86538" lon="5.69054">
    <ele>648</ele>
    <name><![CDATA[Croisement Villarnet]]></name>
  </wpt>
  <wpt lat="44.86313" lon="5.68923">
    <ele>690</ele>
    <name><![CDATA[Croisement - D34E]]></name>
  </wpt>
  <wpt lat="44.86667" lon="5.68237">
    <ele>639</ele>
    <name><![CDATA[point de vue]]></name>
  </wpt>
  <wpt lat="44.87012" lon="5.67424">
    <ele>572</ele>
    <name><![CDATA[Carrefour surplomb passerelle Ebron]]></name>
  </wpt>
  <wpt lat="44.87287" lon="5.67612">
    <ele>548</ele>
    <name><![CDATA[Passerelle de l'Ebron]]></name>
  </wpt>
  <wpt lat="44.87337" lon="5.67659">
    <ele>552</ele>
    <name><![CDATA[Carrefour du Pas du Berlioz]]></name>
  </wpt>
  <wpt lat="44.87279" lon="5.6735">
    <ele>673</ele>
    <name><![CDATA[Pas du Berlioz]]></name>
  </wpt>
  <wpt lat="44.87441" lon="5.67077">
    <ele>720</ele>
    <name><![CDATA[Pierre tombale]]></name>
  </wpt>
  <wpt lat="44.86896" lon="5.6682">
    <ele>554</ele>
    <name><![CDATA[D34. Vers la]]></name>
  </wpt>
  <wpt lat="44.868" lon="5.67109">
    <ele>484</ele>
    <name><![CDATA[Traverser l']]></name>
  </wpt>
  <wpt lat="44.86721" lon="5.67402">
    <ele>548</ele>
    <name><![CDATA[Carrefour D34-chemin retour]]></name>
  </wpt>
  <wpt lat="44.8701" lon="5.67424">
    <ele>572</ele>
    <name><![CDATA[croisement - reprise de l'itinéraire aller]]></name>
  </wpt>
  <wpt lat="44.87334" lon="5.70042">
    <ele>548</ele>
    <name><![CDATA[Parking virage en épingle de la D116a]]></name>
  </wpt>
  <trk>
    <name><![CDATA[Passerelles himalayennes du Monteynard sans le bateau]]></name>
    <trkseg>
      <trkpt lat="44.87274" lon="5.70071">
        <ele>553</ele>
        <time>2019-03-24T09:13:31+01:00</time>
      </trkpt>
      <trkpt lat="44.87311" lon="5.70055">
        <ele>551</ele>
        <time>2021-08-30T23:35:25+02:00</time>
      </trkpt>
      <trkpt lat="44.87355" lon="5.70041">
        <ele>549</ele>
        <time>2019-03-24T09:13:59+01:00</time>
      </trkpt>
      <trkpt lat="44.87313" lon="5.70038">
        <ele>544</ele>
        <time>2019-03-24T09:14:23+01:00</time>
      </trkpt>
      <trkpt lat="44.87284" lon="5.70038">
        <ele>541</ele>
        <time>2019-03-24T09:14:33+01:00</time>
      </trkpt>
      <trkpt lat="44.87263" lon="5.70038">
        <ele>539</ele>
        <time>2019-03-24T09:14:44+01:00</time>
      </trkpt>
      <trkpt lat="44.87209" lon="5.70046">
        <ele>537</ele>
        <time>2019-03-24T09:14:57+01:00</time>
      </trkpt>
      <trkpt lat="44.87197" lon="5.70061">
        <ele>540</ele>
        <time>2019-03-24T09:15:23+01:00</time>
      </trkpt>
      <trkpt lat="44.87215" lon="5.70103">
        <ele>547</ele>
        <time>2019-03-24T09:16:01+01:00</time>
      </trkpt>
      <trkpt lat="44.87226" lon="5.70132">
        <ele>549</ele>
        <time>2019-03-24T09:16:24+01:00</time>
      </trkpt>
      <trkpt lat="44.87234" lon="5.70165">
        <ele>549</ele>
        <time>2019-03-24T09:16:37+01:00</time>
      </trkpt>
      <trkpt lat="44.87238" lon="5.70197">
        <ele>549</ele>
        <time>2019-03-24T09:16:52+01:00</time>
      </trkpt>
      <trkpt lat="44.8724" lon="5.70229">
        <ele>549</ele>
        <time>2019-03-24T09:17:06+01:00</time>
      </trkpt>
      <trkpt lat="44.87241" lon="5.70261">
        <ele>549</ele>
        <time>2019-03-24T09:17:22+01:00</time>
      </trkpt>
      <trkpt lat="44.87254" lon="5.70289">
        <ele>550</ele>
        <time>2019-03-24T09:17:40+01:00</time>
      </trkpt>
      <trkpt lat="44.87267" lon="5.70315">
        <ele>550</ele>
        <time>2019-03-24T09:17:58+01:00</time>
      </trkpt>
      <trkpt lat="44.87282" lon="5.70341">
        <ele>551</ele>
        <time>2019-03-24T09:18:14+01:00</time>
      </trkpt>
      <trkpt lat="44.87294" lon="5.70369">
        <ele>551</ele>
        <time>2019-03-24T09:18:29+01:00</time>
      </trkpt>
      <trkpt lat="44.87316" lon="5.70409">
        <ele>552</ele>
        <time>2019-03-24T09:18:45+01:00</time>
      </trkpt>
      <trkpt lat="44.87289" lon="5.70423">
        <ele>547</ele>
        <time>2019-03-24T09:20:11+01:00</time>
      </trkpt>
      <trkpt lat="44.87266" lon="5.70422">
        <ele>544</ele>
        <time>2019-03-24T09:20:34+01:00</time>
      </trkpt>
      <trkpt lat="44.87244" lon="5.70433">
        <ele>538</ele>
        <time>2019-03-24T09:20:51+01:00</time>
      </trkpt>
      <trkpt lat="44.87227" lon="5.70455">
        <ele>532</ele>
        <time>2019-03-24T09:21:06+01:00</time>
      </trkpt>
      <trkpt lat="44.87215" lon="5.70467">
        <ele>529</ele>
        <time>2021-08-30T23:37:15+02:00</time>
      </trkpt>
      <trkpt lat="44.87221" lon="5.70488">
        <ele>533</ele>
        <time>2019-03-24T09:21:37+01:00</time>
      </trkpt>
      <trkpt lat="44.87226" lon="5.70521">
        <ele>534</ele>
        <time>2019-03-24T09:21:47+01:00</time>
      </trkpt>
      <trkpt lat="44.87218" lon="5.70546">
        <ele>531</ele>
        <time>2019-03-24T09:22:05+01:00</time>
      </trkpt>
      <trkpt lat="44.87207" lon="5.70576">
        <ele>530</ele>
        <time>2019-03-24T09:22:20+01:00</time>
      </trkpt>
      <trkpt lat="44.87195" lon="5.70606">
        <ele>532</ele>
        <time>2019-03-24T09:22:37+01:00</time>
      </trkpt>
      <trkpt lat="44.8718" lon="5.70632">
        <ele>530</ele>
        <time>2019-03-24T09:22:53+01:00</time>
      </trkpt>
      <trkpt lat="44.87163" lon="5.70655">
        <ele>528</ele>
        <time>2019-03-24T09:23:15+01:00</time>
      </trkpt>
      <trkpt lat="44.87135" lon="5.70684">
        <ele>520</ele>
        <time>2019-03-24T09:23:32+01:00</time>
      </trkpt>
      <trkpt lat="44.87138" lon="5.70706">
        <ele>520</ele>
        <time>2019-03-24T09:23:51+01:00</time>
      </trkpt>
      <trkpt lat="44.87159" lon="5.70721">
        <ele>525</ele>
        <time>2019-03-24T09:24:05+01:00</time>
      </trkpt>
      <trkpt lat="44.87167" lon="5.70746">
        <ele>522</ele>
        <time>2019-03-24T09:24:18+01:00</time>
      </trkpt>
      <trkpt lat="44.87169" lon="5.70781">
        <ele>519</ele>
        <time>2019-03-24T09:24:32+01:00</time>
      </trkpt>
      <trkpt lat="44.87154" lon="5.70795">
        <ele>516</ele>
        <time>2019-03-24T09:24:48+01:00</time>
      </trkpt>
      <trkpt lat="44.87132" lon="5.70795">
        <ele>513</ele>
        <time>2019-03-24T09:25:06+01:00</time>
      </trkpt>
      <trkpt lat="44.8711" lon="5.70808">
        <ele>513</ele>
        <time>2019-03-24T09:25:25+01:00</time>
      </trkpt>
      <trkpt lat="44.87106" lon="5.70851">
        <ele>520</ele>
        <time>2019-03-24T09:25:41+01:00</time>
      </trkpt>
      <trkpt lat="44.87088" lon="5.70856">
        <ele>517</ele>
        <time>2019-03-24T09:25:57+01:00</time>
      </trkpt>
      <trkpt lat="44.87067" lon="5.70845">
        <ele>518</ele>
        <time>2019-03-24T09:26:14+01:00</time>
      </trkpt>
      <trkpt lat="44.87047" lon="5.70826">
        <ele>513</ele>
        <time>2019-03-24T09:26:26+01:00</time>
      </trkpt>
      <trkpt lat="44.87031" lon="5.70839">
        <ele>516</ele>
        <time>2019-03-24T09:26:44+01:00</time>
      </trkpt>
      <trkpt lat="44.87036" lon="5.7087">
        <ele>523</ele>
        <time>2019-03-24T09:27:07+01:00</time>
      </trkpt>
      <trkpt lat="44.87024" lon="5.70898">
        <ele>520</ele>
        <time>2019-03-24T09:27:27+01:00</time>
      </trkpt>
      <trkpt lat="44.87012" lon="5.70916">
        <ele>519</ele>
        <time>2019-03-24T09:27:48+01:00</time>
      </trkpt>
      <trkpt lat="44.87" lon="5.70945">
        <ele>524</ele>
        <time>2019-03-24T09:28:00+01:00</time>
      </trkpt>
      <trkpt lat="44.86974" lon="5.70947">
        <ele>524</ele>
        <time>2019-03-24T09:29:30+01:00</time>
      </trkpt>
      <trkpt lat="44.86952" lon="5.70924">
        <ele>511</ele>
        <time>2019-03-24T09:31:40+01:00</time>
      </trkpt>
      <trkpt lat="44.86932" lon="5.70908">
        <ele>494</ele>
        <time>2019-03-24T09:32:02+01:00</time>
      </trkpt>
      <trkpt lat="44.86911" lon="5.70893">
        <ele>481</ele>
        <time>2019-03-24T09:32:23+01:00</time>
      </trkpt>
      <trkpt lat="44.8689" lon="5.70874">
        <ele>480</ele>
        <time>2019-03-24T09:32:45+01:00</time>
      </trkpt>
      <trkpt lat="44.86872" lon="5.70861">
        <ele>480</ele>
        <time>2019-03-24T09:33:55+01:00</time>
      </trkpt>
      <trkpt lat="44.86852" lon="5.70841">
        <ele>483</ele>
        <time>2019-03-24T09:34:16+01:00</time>
      </trkpt>
      <trkpt lat="44.86831" lon="5.70827">
        <ele>496</ele>
        <time>2019-03-24T09:34:34+01:00</time>
      </trkpt>
      <trkpt lat="44.86811" lon="5.70811">
        <ele>517</ele>
        <time>2019-03-24T09:34:54+01:00</time>
      </trkpt>
      <trkpt lat="44.86791" lon="5.70794">
        <ele>534</ele>
        <time>2019-03-24T09:35:21+01:00</time>
      </trkpt>
      <trkpt lat="44.86789" lon="5.70762">
        <ele>535</ele>
        <time>2019-03-24T09:35:48+01:00</time>
      </trkpt>
      <trkpt lat="44.86791" lon="5.70729">
        <ele>532</ele>
        <time>2019-03-24T09:36:08+01:00</time>
      </trkpt>
      <trkpt lat="44.86791" lon="5.70695">
        <ele>530</ele>
        <time>2019-03-24T09:36:25+01:00</time>
      </trkpt>
      <trkpt lat="44.86799" lon="5.70666">
        <ele>524</ele>
        <time>2019-03-24T09:36:35+01:00</time>
      </trkpt>
      <trkpt lat="44.86809" lon="5.70632">
        <ele>517</ele>
        <time>2019-03-24T09:36:51+01:00</time>
      </trkpt>
      <trkpt lat="44.86822" lon="5.70611">
        <ele>510</ele>
        <time>2019-03-24T09:37:09+01:00</time>
      </trkpt>
      <trkpt lat="44.86832" lon="5.70579">
        <ele>501</ele>
        <time>2019-03-24T09:37:33+01:00</time>
      </trkpt>
      <trkpt lat="44.86839" lon="5.70554">
        <ele>497</ele>
        <time>2019-03-24T09:37:55+01:00</time>
      </trkpt>
      <trkpt lat="44.86859" lon="5.70555">
        <ele>492</ele>
        <time>2021-08-30T23:40:50+02:00</time>
      </trkpt>
      <trkpt lat="44.86857" lon="5.70527">
        <ele>499</ele>
        <time>2019-03-24T09:38:33+01:00</time>
      </trkpt>
      <trkpt lat="44.86844" lon="5.70501">
        <ele>504</ele>
        <time>2019-03-24T09:38:58+01:00</time>
      </trkpt>
      <trkpt lat="44.86839" lon="5.70468">
        <ele>512</ele>
        <time>2019-03-24T09:39:15+01:00</time>
      </trkpt>
      <trkpt lat="44.86836" lon="5.70436">
        <ele>516</ele>
        <time>2019-03-24T09:39:36+01:00</time>
      </trkpt>
      <trkpt lat="44.86834" lon="5.70404">
        <ele>518</ele>
        <time>2019-03-24T09:39:55+01:00</time>
      </trkpt>
      <trkpt lat="44.86833" lon="5.70372">
        <ele>515</ele>
        <time>2019-03-24T09:40:16+01:00</time>
      </trkpt>
      <trkpt lat="44.86812" lon="5.70352">
        <ele>522</ele>
        <time>2019-03-24T09:40:45+01:00</time>
      </trkpt>
      <trkpt lat="44.86779" lon="5.70316">
        <ele>530</ele>
        <time>2019-03-24T09:41:23+01:00</time>
      </trkpt>
      <trkpt lat="44.86782" lon="5.70283">
        <ele>523</ele>
        <time>2019-03-24T09:41:37+01:00</time>
      </trkpt>
      <trkpt lat="44.86767" lon="5.7026">
        <ele>531</ele>
        <time>2019-03-24T09:42:01+01:00</time>
      </trkpt>
      <trkpt lat="44.86746" lon="5.70242">
        <ele>543</ele>
        <time>2019-03-24T09:42:24+01:00</time>
      </trkpt>
      <trkpt lat="44.86736" lon="5.70211">
        <ele>547</ele>
        <time>2019-03-24T09:42:42+01:00</time>
      </trkpt>
      <trkpt lat="44.8673" lon="5.70179">
        <ele>550</ele>
        <time>2019-03-24T09:43:04+01:00</time>
      </trkpt>
      <trkpt lat="44.86726" lon="5.70147">
        <ele>553</ele>
        <time>2019-03-24T09:43:24+01:00</time>
      </trkpt>
      <trkpt lat="44.86726" lon="5.70116">
        <ele>555</ele>
        <time>2019-03-24T09:43:46+01:00</time>
      </trkpt>
      <trkpt lat="44.86722" lon="5.70086">
        <ele>560</ele>
        <time>2019-03-24T09:44:08+01:00</time>
      </trkpt>
      <trkpt lat="44.86719" lon="5.70054">
        <ele>566</ele>
        <time>2019-03-24T09:44:32+01:00</time>
      </trkpt>
      <trkpt lat="44.86701" lon="5.70042">
        <ele>574</ele>
        <time>2019-03-24T09:44:54+01:00</time>
      </trkpt>
      <trkpt lat="44.86704" lon="5.70013">
        <ele>573</ele>
        <time>2019-03-24T09:45:47+01:00</time>
      </trkpt>
      <trkpt lat="44.86696" lon="5.70008">
        <ele>576</ele>
        <time>2021-08-30T23:42:30+02:00</time>
      </trkpt>
      <trkpt lat="44.8669" lon="5.70025">
        <ele>579</ele>
        <time>2021-08-30T23:42:35+02:00</time>
      </trkpt>
      <trkpt lat="44.86683" lon="5.70031">
        <ele>582</ele>
        <time>2019-03-24T09:46:16+01:00</time>
      </trkpt>
      <trkpt lat="44.8666" lon="5.70039">
        <ele>590</ele>
        <time>2019-03-24T09:46:46+01:00</time>
      </trkpt>
      <trkpt lat="44.86647" lon="5.70013">
        <ele>593</ele>
        <time>2019-03-24T09:47:11+01:00</time>
      </trkpt>
      <trkpt lat="44.86646" lon="5.69981">
        <ele>590</ele>
        <time>2019-03-24T09:47:35+01:00</time>
      </trkpt>
      <trkpt lat="44.86639" lon="5.69951">
        <ele>587</ele>
        <time>2019-03-24T09:47:51+01:00</time>
      </trkpt>
      <trkpt lat="44.86621" lon="5.69928">
        <ele>587</ele>
        <time>2019-03-24T09:48:14+01:00</time>
      </trkpt>
      <trkpt lat="44.86609" lon="5.699">
        <ele>585</ele>
        <time>2019-03-24T09:48:30+01:00</time>
      </trkpt>
      <trkpt lat="44.86588" lon="5.69886">
        <ele>586</ele>
        <time>2019-03-24T09:48:51+01:00</time>
      </trkpt>
      <trkpt lat="44.86571" lon="5.69864">
        <ele>586</ele>
        <time>2019-03-24T09:49:11+01:00</time>
      </trkpt>
      <trkpt lat="44.86557" lon="5.69852">
        <ele>587</ele>
        <time>2019-03-24T09:49:44+01:00</time>
      </trkpt>
      <trkpt lat="44.86559" lon="5.69834">
        <ele>583</ele>
        <time>2021-08-30T23:43:30+02:00</time>
      </trkpt>
      <trkpt lat="44.86552" lon="5.69821">
        <ele>583</ele>
        <time>2019-03-24T09:50:33+01:00</time>
      </trkpt>
      <trkpt lat="44.8653" lon="5.69817">
        <ele>591</ele>
        <time>2019-03-24T09:50:48+01:00</time>
      </trkpt>
      <trkpt lat="44.86533" lon="5.69786">
        <ele>587</ele>
        <time>2021-08-30T23:43:45+02:00</time>
      </trkpt>
      <trkpt lat="44.86527" lon="5.6976">
        <ele>589</ele>
        <time>2019-03-24T09:51:12+01:00</time>
      </trkpt>
      <trkpt lat="44.86524" lon="5.69725">
        <ele>597</ele>
        <time>2019-03-24T09:51:32+01:00</time>
      </trkpt>
      <trkpt lat="44.8652" lon="5.69702">
        <ele>602</ele>
        <time>2021-08-30T23:44:00+02:00</time>
      </trkpt>
      <trkpt lat="44.86529" lon="5.69696">
        <ele>601</ele>
        <time>2019-03-24T09:52:00+01:00</time>
      </trkpt>
      <trkpt lat="44.86539" lon="5.69687">
        <ele>600</ele>
        <time>2019-03-24T09:52:20+01:00</time>
      </trkpt>
      <trkpt lat="44.86558" lon="5.69689">
        <ele>596</ele>
        <time>2021-08-30T23:44:15+02:00</time>
      </trkpt>
      <trkpt lat="44.86574" lon="5.6968">
        <ele>598</ele>
        <time>2019-03-24T09:52:45+01:00</time>
      </trkpt>
      <trkpt lat="44.86601" lon="5.69661">
        <ele>601</ele>
        <time>2019-03-24T09:53:02+01:00</time>
      </trkpt>
      <trkpt lat="44.86603" lon="5.69596">
        <ele>612</ele>
        <time>2019-03-24T09:55:52+01:00</time>
      </trkpt>
      <trkpt lat="44.8661" lon="5.69573">
        <ele>615</ele>
        <time>2019-03-24T09:56:25+01:00</time>
      </trkpt>
      <trkpt lat="44.86622" lon="5.69546">
        <ele>617</ele>
        <time>2019-03-24T09:56:41+01:00</time>
      </trkpt>
      <trkpt lat="44.8663" lon="5.69516">
        <ele>619</ele>
        <time>2019-03-24T09:57:00+01:00</time>
      </trkpt>
      <trkpt lat="44.86634" lon="5.69471">
        <ele>620</ele>
        <time>2019-03-24T09:57:19+01:00</time>
      </trkpt>
      <trkpt lat="44.86613" lon="5.69492">
        <ele>624</ele>
        <time>2019-03-24T09:57:40+01:00</time>
      </trkpt>
      <trkpt lat="44.86601" lon="5.69519">
        <ele>623</ele>
        <time>2019-03-24T09:57:59+01:00</time>
      </trkpt>
      <trkpt lat="44.86578" lon="5.69528">
        <ele>622</ele>
        <time>2019-03-24T09:58:13+01:00</time>
      </trkpt>
      <trkpt lat="44.86555" lon="5.69525">
        <ele>624</ele>
        <time>2019-03-24T09:58:29+01:00</time>
      </trkpt>
      <trkpt lat="44.86535" lon="5.69514">
        <ele>627</ele>
        <time>2019-03-24T09:58:46+01:00</time>
      </trkpt>
      <trkpt lat="44.86514" lon="5.695">
        <ele>630</ele>
        <time>2019-03-24T09:59:10+01:00</time>
      </trkpt>
      <trkpt lat="44.86497" lon="5.69478">
        <ele>634</ele>
        <time>2019-03-24T09:59:30+01:00</time>
      </trkpt>
      <trkpt lat="44.86477" lon="5.6946">
        <ele>638</ele>
        <time>2019-03-24T09:59:48+01:00</time>
      </trkpt>
      <trkpt lat="44.86458" lon="5.69441">
        <ele>642</ele>
        <time>2019-03-24T10:00:08+01:00</time>
      </trkpt>
      <trkpt lat="44.86437" lon="5.69417">
        <ele>648</ele>
        <time>2019-03-24T10:00:30+01:00</time>
      </trkpt>
      <trkpt lat="44.86415" lon="5.69411">
        <ele>651</ele>
        <time>2019-03-24T10:00:51+01:00</time>
      </trkpt>
      <trkpt lat="44.86394" lon="5.69411">
        <ele>655</ele>
        <time>2019-03-24T10:01:11+01:00</time>
      </trkpt>
      <trkpt lat="44.86371" lon="5.69412">
        <ele>658</ele>
        <time>2019-03-24T10:01:32+01:00</time>
      </trkpt>
      <trkpt lat="44.86351" lon="5.69394">
        <ele>663</ele>
        <time>2019-03-24T10:01:51+01:00</time>
      </trkpt>
      <trkpt lat="44.86346" lon="5.69363">
        <ele>666</ele>
        <time>2019-03-24T10:02:12+01:00</time>
      </trkpt>
      <trkpt lat="44.86345" lon="5.6933">
        <ele>667</ele>
        <time>2019-03-24T10:02:33+01:00</time>
      </trkpt>
      <trkpt lat="44.86351" lon="5.69299">
        <ele>667</ele>
        <time>2019-03-24T10:02:50+01:00</time>
      </trkpt>
      <trkpt lat="44.86363" lon="5.69271">
        <ele>665</ele>
        <time>2019-03-24T10:03:07+01:00</time>
      </trkpt>
      <trkpt lat="44.86377" lon="5.69245">
        <ele>663</ele>
        <time>2019-03-24T10:03:24+01:00</time>
      </trkpt>
      <trkpt lat="44.86396" lon="5.69225">
        <ele>662</ele>
        <time>2019-03-24T10:03:44+01:00</time>
      </trkpt>
      <trkpt lat="44.86417" lon="5.69211">
        <ele>660</ele>
        <time>2019-03-24T10:04:00+01:00</time>
      </trkpt>
      <trkpt lat="44.86435" lon="5.69191">
        <ele>657</ele>
        <time>2019-03-24T10:04:15+01:00</time>
      </trkpt>
      <trkpt lat="44.86456" lon="5.69175">
        <ele>655</ele>
        <time>2019-03-24T10:04:32+01:00</time>
      </trkpt>
      <trkpt lat="44.86475" lon="5.69156">
        <ele>652</ele>
        <time>2019-03-24T10:04:52+01:00</time>
      </trkpt>
      <trkpt lat="44.86496" lon="5.69143">
        <ele>649</ele>
        <time>2019-03-24T10:05:07+01:00</time>
      </trkpt>
      <trkpt lat="44.86509" lon="5.69116">
        <ele>649</ele>
        <time>2019-03-24T10:05:26+01:00</time>
      </trkpt>
      <trkpt lat="44.86522" lon="5.69083">
        <ele>649</ele>
        <time>2019-03-24T10:05:41+01:00</time>
      </trkpt>
      <trkpt lat="44.86538" lon="5.69054">
        <ele>648</ele>
        <time>2019-03-24T10:05:57+01:00</time>
      </trkpt>
      <trkpt lat="44.86524" lon="5.69047">
        <ele>650</ele>
        <time>2019-03-24T10:06:20+01:00</time>
      </trkpt>
      <trkpt lat="44.86501" lon="5.69037">
        <ele>654</ele>
        <time>2019-03-24T10:06:43+01:00</time>
      </trkpt>
      <trkpt lat="44.8648" lon="5.69024">
        <ele>658</ele>
        <time>2019-03-24T10:06:59+01:00</time>
      </trkpt>
      <trkpt lat="44.86462" lon="5.69005">
        <ele>661</ele>
        <time>2019-03-24T10:07:17+01:00</time>
      </trkpt>
      <trkpt lat="44.86446" lon="5.68982">
        <ele>664</ele>
        <time>2019-03-24T10:07:39+01:00</time>
      </trkpt>
      <trkpt lat="44.8643" lon="5.68959">
        <ele>667</ele>
        <time>2019-03-24T10:08:04+01:00</time>
      </trkpt>
      <trkpt lat="44.86415" lon="5.68934">
        <ele>670</ele>
        <time>2019-03-24T10:08:32+01:00</time>
      </trkpt>
      <trkpt lat="44.86398" lon="5.68913">
        <ele>675</ele>
        <time>2019-03-24T10:08:58+01:00</time>
      </trkpt>
      <trkpt lat="44.86377" lon="5.68897">
        <ele>682</ele>
        <time>2019-03-24T10:09:29+01:00</time>
      </trkpt>
      <trkpt lat="44.86355" lon="5.68897">
        <ele>686</ele>
        <time>2019-03-24T10:10:27+01:00</time>
      </trkpt>
      <trkpt lat="44.86333" lon="5.68907">
        <ele>689</ele>
        <time>2019-03-24T10:10:44+01:00</time>
      </trkpt>
      <trkpt lat="44.86313" lon="5.68923">
        <ele>690</ele>
        <time>2019-03-24T10:11:03+01:00</time>
      </trkpt>
      <trkpt lat="44.86291" lon="5.68931">
        <ele>692</ele>
        <time>2019-03-24T10:11:24+01:00</time>
      </trkpt>
      <trkpt lat="44.86267" lon="5.68936">
        <ele>695</ele>
        <time>2019-03-24T10:11:46+01:00</time>
      </trkpt>
      <trkpt lat="44.86246" lon="5.68926">
        <ele>695</ele>
        <time>2019-03-24T10:12:01+01:00</time>
      </trkpt>
      <trkpt lat="44.86252" lon="5.68896">
        <ele>686</ele>
        <time>2019-03-24T10:12:38+01:00</time>
      </trkpt>
      <trkpt lat="44.86269" lon="5.68875">
        <ele>678</ele>
        <time>2019-03-24T10:13:26+01:00</time>
      </trkpt>
      <trkpt lat="44.86291" lon="5.68865">
        <ele>673</ele>
        <time>2019-03-24T10:13:46+01:00</time>
      </trkpt>
      <trkpt lat="44.86313" lon="5.68854">
        <ele>670</ele>
        <time>2019-03-24T10:14:01+01:00</time>
      </trkpt>
      <trkpt lat="44.86333" lon="5.68838">
        <ele>668</ele>
        <time>2019-03-24T10:14:27+01:00</time>
      </trkpt>
      <trkpt lat="44.86351" lon="5.68819">
        <ele>668</ele>
        <time>2019-03-24T10:14:40+01:00</time>
      </trkpt>
      <trkpt lat="44.86365" lon="5.68792">
        <ele>665</ele>
        <time>2019-03-24T10:14:58+01:00</time>
      </trkpt>
      <trkpt lat="44.86382" lon="5.68769">
        <ele>665</ele>
        <time>2019-03-24T10:15:25+01:00</time>
      </trkpt>
      <trkpt lat="44.86397" lon="5.68742">
        <ele>663</ele>
        <time>2019-03-24T10:15:41+01:00</time>
      </trkpt>
      <trkpt lat="44.86417" lon="5.68725">
        <ele>663</ele>
        <time>2019-03-24T10:16:06+01:00</time>
      </trkpt>
      <trkpt lat="44.86432" lon="5.68699">
        <ele>660</ele>
        <time>2019-03-24T10:16:26+01:00</time>
      </trkpt>
      <trkpt lat="44.86445" lon="5.68671">
        <ele>654</ele>
        <time>2019-03-24T10:16:43+01:00</time>
      </trkpt>
      <trkpt lat="44.86451" lon="5.6864">
        <ele>652</ele>
        <time>2019-03-24T10:16:59+01:00</time>
      </trkpt>
      <trkpt lat="44.8646" lon="5.68611">
        <ele>648</ele>
        <time>2019-03-24T10:17:17+01:00</time>
      </trkpt>
      <trkpt lat="44.86452" lon="5.68581">
        <ele>642</ele>
        <time>2019-03-24T10:17:35+01:00</time>
      </trkpt>
      <trkpt lat="44.86455" lon="5.68548">
        <ele>638</ele>
        <time>2019-03-24T10:17:55+01:00</time>
      </trkpt>
      <trkpt lat="44.86463" lon="5.68519">
        <ele>634</ele>
        <time>2019-03-24T10:18:11+01:00</time>
      </trkpt>
      <trkpt lat="44.86481" lon="5.68498">
        <ele>637</ele>
        <time>2019-03-24T10:18:31+01:00</time>
      </trkpt>
      <trkpt lat="44.86493" lon="5.6847">
        <ele>638</ele>
        <time>2019-03-24T10:18:57+01:00</time>
      </trkpt>
      <trkpt lat="44.865" lon="5.6844">
        <ele>637</ele>
        <time>2019-03-24T10:19:15+01:00</time>
      </trkpt>
      <trkpt lat="44.86517" lon="5.68415">
        <ele>638</ele>
        <time>2019-03-24T10:19:31+01:00</time>
      </trkpt>
      <trkpt lat="44.86536" lon="5.68398">
        <ele>640</ele>
        <time>2019-03-24T10:19:47+01:00</time>
      </trkpt>
      <trkpt lat="44.86551" lon="5.68373">
        <ele>640</ele>
        <time>2019-03-24T10:20:05+01:00</time>
      </trkpt>
      <trkpt lat="44.86567" lon="5.68349">
        <ele>640</ele>
        <time>2019-03-24T10:20:21+01:00</time>
      </trkpt>
      <trkpt lat="44.86577" lon="5.68317">
        <ele>638</ele>
        <time>2019-03-24T10:20:42+01:00</time>
      </trkpt>
      <trkpt lat="44.86601" lon="5.68312">
        <ele>638</ele>
        <time>2019-03-24T10:21:01+01:00</time>
      </trkpt>
      <trkpt lat="44.86622" lon="5.68301">
        <ele>639</ele>
        <time>2019-03-24T10:21:12+01:00</time>
      </trkpt>
      <trkpt lat="44.86634" lon="5.68282">
        <ele>637</ele>
        <time>2019-03-24T10:21:29+01:00</time>
      </trkpt>
      <trkpt lat="44.8665" lon="5.68258">
        <ele>635</ele>
        <time>2019-03-24T10:21:53+01:00</time>
      </trkpt>
      <trkpt lat="44.86667" lon="5.68237">
        <ele>639</ele>
        <time>2019-03-24T10:22:22+01:00</time>
      </trkpt>
      <trkpt lat="44.8668" lon="5.68211">
        <ele>632</ele>
        <time>2019-03-24T10:25:52+01:00</time>
      </trkpt>
      <trkpt lat="44.86687" lon="5.68179">
        <ele>629</ele>
        <time>2019-03-24T10:26:16+01:00</time>
      </trkpt>
      <trkpt lat="44.86691" lon="5.68141">
        <ele>625</ele>
        <time>2019-03-24T10:26:33+01:00</time>
      </trkpt>
      <trkpt lat="44.86707" lon="5.68125">
        <ele>621</ele>
        <time>2019-03-24T10:26:58+01:00</time>
      </trkpt>
      <trkpt lat="44.86716" lon="5.68096">
        <ele>619</ele>
        <time>2019-03-24T10:27:20+01:00</time>
      </trkpt>
      <trkpt lat="44.86721" lon="5.68064">
        <ele>617</ele>
        <time>2019-03-24T10:27:42+01:00</time>
      </trkpt>
      <trkpt lat="44.86734" lon="5.68036">
        <ele>610</ele>
        <time>2019-03-24T10:27:55+01:00</time>
      </trkpt>
      <trkpt lat="44.86747" lon="5.68014">
        <ele>606</ele>
        <time>2019-03-24T10:28:08+01:00</time>
      </trkpt>
      <trkpt lat="44.86765" lon="5.67991">
        <ele>602</ele>
        <time>2019-03-24T10:28:27+01:00</time>
      </trkpt>
      <trkpt lat="44.86779" lon="5.67964">
        <ele>600</ele>
        <time>2019-03-24T10:28:45+01:00</time>
      </trkpt>
      <trkpt lat="44.86795" lon="5.67937">
        <ele>600</ele>
        <time>2019-03-24T10:29:04+01:00</time>
      </trkpt>
      <trkpt lat="44.86809" lon="5.67909">
        <ele>600</ele>
        <time>2019-03-24T10:29:21+01:00</time>
      </trkpt>
      <trkpt lat="44.8682" lon="5.6788">
        <ele>600</ele>
        <time>2019-03-24T10:29:40+01:00</time>
      </trkpt>
      <trkpt lat="44.86837" lon="5.67857">
        <ele>599</ele>
        <time>2019-03-24T10:29:59+01:00</time>
      </trkpt>
      <trkpt lat="44.8685" lon="5.67832">
        <ele>598</ele>
        <time>2019-03-24T10:31:31+01:00</time>
      </trkpt>
      <trkpt lat="44.86862" lon="5.67808">
        <ele>598</ele>
        <time>2019-03-24T10:38:31+01:00</time>
      </trkpt>
      <trkpt lat="44.86872" lon="5.67779">
        <ele>595</ele>
        <time>2019-03-24T10:38:50+01:00</time>
      </trkpt>
      <trkpt lat="44.86884" lon="5.67752">
        <ele>591</ele>
        <time>2019-03-24T10:39:13+01:00</time>
      </trkpt>
      <trkpt lat="44.86894" lon="5.67723">
        <ele>588</ele>
        <time>2019-03-24T10:39:29+01:00</time>
      </trkpt>
      <trkpt lat="44.86907" lon="5.67696">
        <ele>585</ele>
        <time>2019-03-24T10:39:47+01:00</time>
      </trkpt>
      <trkpt lat="44.86925" lon="5.67675">
        <ele>581</ele>
        <time>2019-03-24T10:40:02+01:00</time>
      </trkpt>
      <trkpt lat="44.86938" lon="5.67646">
        <ele>582</ele>
        <time>2019-03-24T10:40:19+01:00</time>
      </trkpt>
      <trkpt lat="44.86953" lon="5.67621">
        <ele>584</ele>
        <time>2019-03-24T10:40:36+01:00</time>
      </trkpt>
      <trkpt lat="44.86957" lon="5.67588">
        <ele>584</ele>
        <time>2019-03-24T10:40:57+01:00</time>
      </trkpt>
      <trkpt lat="44.86953" lon="5.67556">
        <ele>587</ele>
        <time>2019-03-24T10:41:14+01:00</time>
      </trkpt>
      <trkpt lat="44.86955" lon="5.67528">
        <ele>588</ele>
        <time>2019-03-24T10:41:30+01:00</time>
      </trkpt>
      <trkpt lat="44.8697" lon="5.67496">
        <ele>585</ele>
        <time>2019-03-24T10:41:42+01:00</time>
      </trkpt>
      <trkpt lat="44.86985" lon="5.67475">
        <ele>580</ele>
        <time>2019-03-24T10:42:01+01:00</time>
      </trkpt>
      <trkpt lat="44.87" lon="5.67448">
        <ele>575</ele>
        <time>2019-03-24T10:42:19+01:00</time>
      </trkpt>
      <trkpt lat="44.87012" lon="5.67424">
        <ele>572</ele>
        <time>2019-03-24T10:42:34+01:00</time>
      </trkpt>
      <trkpt lat="44.87018" lon="5.67399">
        <ele>567</ele>
        <time>2021-08-30T23:53:30+02:00</time>
      </trkpt>
      <trkpt lat="44.87033" lon="5.67411">
        <ele>568</ele>
        <time>2019-03-24T10:43:38+01:00</time>
      </trkpt>
      <trkpt lat="44.87045" lon="5.67424">
        <ele>569</ele>
        <time>2021-08-30T23:53:40+02:00</time>
      </trkpt>
      <trkpt lat="44.8703" lon="5.67443">
        <ele>569</ele>
        <time>2019-03-24T10:44:11+01:00</time>
      </trkpt>
      <trkpt lat="44.87025" lon="5.67475">
        <ele>565</ele>
        <time>2019-03-24T10:44:31+01:00</time>
      </trkpt>
      <trkpt lat="44.87031" lon="5.67509">
        <ele>557</ele>
        <time>2019-03-24T10:44:52+01:00</time>
      </trkpt>
      <trkpt lat="44.87041" lon="5.67536">
        <ele>548</ele>
        <time>2019-03-24T10:45:16+01:00</time>
      </trkpt>
      <trkpt lat="44.87034" lon="5.67567">
        <ele>550</ele>
        <time>2019-03-24T10:45:36+01:00</time>
      </trkpt>
      <trkpt lat="44.87044" lon="5.67591">
        <ele>547</ele>
        <time>2019-03-24T10:45:58+01:00</time>
      </trkpt>
      <trkpt lat="44.87064" lon="5.67597">
        <ele>537</ele>
        <time>2021-08-30T23:54:15+02:00</time>
      </trkpt>
      <trkpt lat="44.87077" lon="5.67615">
        <ele>532</ele>
        <time>2019-03-24T10:46:14+01:00</time>
      </trkpt>
      <trkpt lat="44.87076" lon="5.67634">
        <ele>537</ele>
        <time>2021-08-30T23:54:25+02:00</time>
      </trkpt>
      <trkpt lat="44.87085" lon="5.67642">
        <ele>532</ele>
        <time>2019-03-24T10:46:46+01:00</time>
      </trkpt>
      <trkpt lat="44.87093" lon="5.67645">
        <ele>528</ele>
        <time>2021-08-30T23:54:35+02:00</time>
      </trkpt>
      <trkpt lat="44.87083" lon="5.67658">
        <ele>530</ele>
        <time>2021-08-30T23:54:40+02:00</time>
      </trkpt>
      <trkpt lat="44.87106" lon="5.67655">
        <ele>519</ele>
        <time>2019-03-24T10:47:37+01:00</time>
      </trkpt>
      <trkpt lat="44.87113" lon="5.67644">
        <ele>517</ele>
        <time>2021-08-30T23:54:50+02:00</time>
      </trkpt>
      <trkpt lat="44.8713" lon="5.67653">
        <ele>500</ele>
        <time>2019-03-24T10:49:00+01:00</time>
      </trkpt>
      <trkpt lat="44.87196" lon="5.67683">
        <ele>480</ele>
        <time>2019-03-24T10:49:56+01:00</time>
      </trkpt>
      <trkpt lat="44.87216" lon="5.67693">
        <ele>480</ele>
        <time>2019-03-24T10:51:04+01:00</time>
      </trkpt>
      <trkpt lat="44.87241" lon="5.67704">
        <ele>490</ele>
        <time>2019-03-24T10:51:28+01:00</time>
      </trkpt>
      <trkpt lat="44.87289" lon="5.67727">
        <ele>528</ele>
        <time>2019-03-24T10:52:13+01:00</time>
      </trkpt>
      <trkpt lat="44.87297" lon="5.67714">
        <ele>533</ele>
        <time>2021-08-30T23:55:20+02:00</time>
      </trkpt>
      <trkpt lat="44.87282" lon="5.6768">
        <ele>534</ele>
        <time>2019-03-24T10:54:42+01:00</time>
      </trkpt>
      <trkpt lat="44.87286" lon="5.67666">
        <ele>538</ele>
        <time>2019-03-24T10:55:06+01:00</time>
      </trkpt>
      <trkpt lat="44.87321" lon="5.67656">
        <ele>550</ele>
        <time>2019-03-24T10:55:30+01:00</time>
      </trkpt>
      <trkpt lat="44.87287" lon="5.67612">
        <ele>548</ele>
        <time>2019-03-24T10:56:08+01:00</time>
      </trkpt>
      <trkpt lat="44.87317" lon="5.67651">
        <ele>551</ele>
        <time>2019-03-24T10:57:32+01:00</time>
      </trkpt>
      <trkpt lat="44.87337" lon="5.67659">
        <ele>552</ele>
        <time>2019-03-24T10:57:49+01:00</time>
      </trkpt>
      <trkpt lat="44.87344" lon="5.67648">
        <ele>557</ele>
        <time>2021-08-30T23:55:55+02:00</time>
      </trkpt>
      <trkpt lat="44.87333" lon="5.67627">
        <ele>563</ele>
        <time>2019-03-24T10:59:40+01:00</time>
      </trkpt>
      <trkpt lat="44.87314" lon="5.67599">
        <ele>565</ele>
        <time>2021-08-30T23:56:05+02:00</time>
      </trkpt>
      <trkpt lat="44.87327" lon="5.67592">
        <ele>573</ele>
        <time>2019-03-24T11:00:17+01:00</time>
      </trkpt>
      <trkpt lat="44.87351" lon="5.67593">
        <ele>579</ele>
        <time>2019-03-24T11:00:49+01:00</time>
      </trkpt>
      <trkpt lat="44.87372" lon="5.67581">
        <ele>589</ele>
        <time>2019-03-24T11:01:24+01:00</time>
      </trkpt>
      <trkpt lat="44.87394" lon="5.67571">
        <ele>597</ele>
        <time>2019-03-24T11:01:52+01:00</time>
      </trkpt>
      <trkpt lat="44.87416" lon="5.67565">
        <ele>604</ele>
        <time>2019-03-24T11:02:21+01:00</time>
      </trkpt>
      <trkpt lat="44.87456" lon="5.67557">
        <ele>612</ele>
        <time>2019-03-24T11:02:52+01:00</time>
      </trkpt>
      <trkpt lat="44.87426" lon="5.67533">
        <ele>622</ele>
        <time>2019-03-24T11:04:07+01:00</time>
      </trkpt>
      <trkpt lat="44.87412" lon="5.67514">
        <ele>632</ele>
        <time>2019-03-24T11:04:45+01:00</time>
      </trkpt>
      <trkpt lat="44.87402" lon="5.675">
        <ele>638</ele>
        <time>2019-03-24T11:05:23+01:00</time>
      </trkpt>
      <trkpt lat="44.87384" lon="5.67471">
        <ele>653</ele>
        <time>2019-03-24T11:06:11+01:00</time>
      </trkpt>
      <trkpt lat="44.87367" lon="5.67451">
        <ele>665</ele>
        <time>2019-03-24T11:06:45+01:00</time>
      </trkpt>
      <trkpt lat="44.87349" lon="5.6743">
        <ele>676</ele>
        <time>2019-03-24T11:07:12+01:00</time>
      </trkpt>
      <trkpt lat="44.87332" lon="5.67409">
        <ele>685</ele>
        <time>2019-03-24T11:07:34+01:00</time>
      </trkpt>
      <trkpt lat="44.87311" lon="5.67393">
        <ele>682</ele>
        <time>2019-03-24T11:07:57+01:00</time>
      </trkpt>
      <trkpt lat="44.87293" lon="5.67373">
        <ele>675</ele>
        <time>2019-03-24T11:09:13+01:00</time>
      </trkpt>
      <trkpt lat="44.87279" lon="5.6735">
        <ele>673</ele>
        <time>2019-03-24T11:15:03+01:00</time>
      </trkpt>
      <trkpt lat="44.87289" lon="5.67324">
        <ele>678</ele>
        <time>2019-03-24T11:17:18+01:00</time>
      </trkpt>
      <trkpt lat="44.87293" lon="5.67279">
        <ele>674</ele>
        <time>2019-03-24T11:17:44+01:00</time>
      </trkpt>
      <trkpt lat="44.87293" lon="5.67253">
        <ele>675</ele>
        <time>2019-03-24T11:18:03+01:00</time>
      </trkpt>
      <trkpt lat="44.87271" lon="5.67241">
        <ele>669</ele>
        <time>2019-03-24T11:18:16+01:00</time>
      </trkpt>
      <trkpt lat="44.8725" lon="5.67197">
        <ele>675</ele>
        <time>2019-03-24T11:18:35+01:00</time>
      </trkpt>
      <trkpt lat="44.87263" lon="5.67189">
        <ele>682</ele>
        <time>2019-03-24T11:20:01+01:00</time>
      </trkpt>
      <trkpt lat="44.87256" lon="5.67157">
        <ele>689</ele>
        <time>2019-03-24T11:20:32+01:00</time>
      </trkpt>
      <trkpt lat="44.87252" lon="5.67129">
        <ele>694</ele>
        <time>2019-03-24T11:21:16+01:00</time>
      </trkpt>
      <trkpt lat="44.87256" lon="5.67121">
        <ele>696</ele>
        <time>2021-08-30T23:58:10+02:00</time>
      </trkpt>
      <trkpt lat="44.87251" lon="5.67083">
        <ele>694</ele>
        <time>2019-03-24T11:21:41+01:00</time>
      </trkpt>
      <trkpt lat="44.8726" lon="5.67082">
        <ele>696</ele>
        <time>2021-08-30T23:58:20+02:00</time>
      </trkpt>
      <trkpt lat="44.87281" lon="5.67093">
        <ele>704</ele>
        <time>2019-03-24T11:22:23+01:00</time>
      </trkpt>
      <trkpt lat="44.87304" lon="5.67099">
        <ele>709</ele>
        <time>2019-03-24T11:22:52+01:00</time>
      </trkpt>
      <trkpt lat="44.87326" lon="5.67097">
        <ele>710</ele>
        <time>2019-03-24T11:23:12+01:00</time>
      </trkpt>
      <trkpt lat="44.8735" lon="5.67096">
        <ele>714</ele>
        <time>2019-03-24T11:23:31+01:00</time>
      </trkpt>
      <trkpt lat="44.87372" lon="5.67091">
        <ele>718</ele>
        <time>2019-03-24T11:23:58+01:00</time>
      </trkpt>
      <trkpt lat="44.87395" lon="5.6709">
        <ele>720</ele>
        <time>2019-03-24T11:24:18+01:00</time>
      </trkpt>
      <trkpt lat="44.87418" lon="5.67086">
        <ele>720</ele>
        <time>2019-03-24T11:24:36+01:00</time>
      </trkpt>
      <trkpt lat="44.87441" lon="5.67077">
        <ele>720</ele>
        <time>2019-03-24T11:24:54+01:00</time>
      </trkpt>
      <trkpt lat="44.87463" lon="5.6707">
        <ele>724</ele>
        <time>2019-03-24T11:25:45+01:00</time>
      </trkpt>
      <trkpt lat="44.87442" lon="5.67057">
        <ele>719</ele>
        <time>2019-03-24T11:26:08+01:00</time>
      </trkpt>
      <trkpt lat="44.87419" lon="5.6705">
        <ele>715</ele>
        <time>2019-03-24T11:26:28+01:00</time>
      </trkpt>
      <trkpt lat="44.87396" lon="5.67048">
        <ele>711</ele>
        <time>2019-03-24T11:26:46+01:00</time>
      </trkpt>
      <trkpt lat="44.87373" lon="5.67043">
        <ele>706</ele>
        <time>2019-03-24T11:27:08+01:00</time>
      </trkpt>
      <trkpt lat="44.8735" lon="5.67037">
        <ele>701</ele>
        <time>2019-03-24T11:27:31+01:00</time>
      </trkpt>
      <trkpt lat="44.87328" lon="5.67029">
        <ele>695</ele>
        <time>2019-03-24T11:27:47+01:00</time>
      </trkpt>
      <trkpt lat="44.87304" lon="5.67028">
        <ele>691</ele>
        <time>2019-03-24T11:28:06+01:00</time>
      </trkpt>
      <trkpt lat="44.87281" lon="5.67033">
        <ele>689</ele>
        <time>2019-03-24T11:28:20+01:00</time>
      </trkpt>
      <trkpt lat="44.87258" lon="5.67031">
        <ele>684</ele>
        <time>2019-03-24T11:28:43+01:00</time>
      </trkpt>
      <trkpt lat="44.87235" lon="5.67026">
        <ele>678</ele>
        <time>2019-03-24T11:29:01+01:00</time>
      </trkpt>
      <trkpt lat="44.8719" lon="5.67028">
        <ele>665</ele>
        <time>2019-03-24T11:29:26+01:00</time>
      </trkpt>
      <trkpt lat="44.87215" lon="5.66981">
        <ele>659</ele>
        <time>2019-03-24T11:30:37+01:00</time>
      </trkpt>
      <trkpt lat="44.87201" lon="5.66971">
        <ele>652</ele>
        <time>2019-03-24T11:31:08+01:00</time>
      </trkpt>
      <trkpt lat="44.87177" lon="5.66974">
        <ele>648</ele>
        <time>2019-03-24T11:31:28+01:00</time>
      </trkpt>
      <trkpt lat="44.87154" lon="5.66973">
        <ele>642</ele>
        <time>2019-03-24T11:31:56+01:00</time>
      </trkpt>
      <trkpt lat="44.87131" lon="5.66971">
        <ele>637</ele>
        <time>2019-03-24T11:32:15+01:00</time>
      </trkpt>
      <trkpt lat="44.87109" lon="5.66965">
        <ele>631</ele>
        <time>2019-03-24T11:32:38+01:00</time>
      </trkpt>
      <trkpt lat="44.87086" lon="5.66965">
        <ele>626</ele>
        <time>2019-03-24T11:32:58+01:00</time>
      </trkpt>
      <trkpt lat="44.87058" lon="5.66955">
        <ele>619</ele>
        <time>2019-03-24T11:33:28+01:00</time>
      </trkpt>
      <trkpt lat="44.87042" lon="5.66946">
        <ele>614</ele>
        <time>2019-03-24T11:34:01+01:00</time>
      </trkpt>
      <trkpt lat="44.8703" lon="5.66958">
        <ele>611</ele>
        <time>2021-08-31T00:00:50+02:00</time>
      </trkpt>
      <trkpt lat="44.87019" lon="5.66946">
        <ele>606</ele>
        <time>2019-03-24T11:34:27+01:00</time>
      </trkpt>
      <trkpt lat="44.87" lon="5.66927">
        <ele>598</ele>
        <time>2019-03-24T11:34:57+01:00</time>
      </trkpt>
      <trkpt lat="44.86994" lon="5.66886">
        <ele>590</ele>
        <time>2019-03-24T11:35:25+01:00</time>
      </trkpt>
      <trkpt lat="44.86978" lon="5.66876">
        <ele>584</ele>
        <time>2019-03-24T11:35:47+01:00</time>
      </trkpt>
      <trkpt lat="44.86965" lon="5.66865">
        <ele>578</ele>
        <time>2021-08-31T00:01:15+02:00</time>
      </trkpt>
      <trkpt lat="44.86955" lon="5.66835">
        <ele>571</ele>
        <time>2019-03-24T11:36:07+01:00</time>
      </trkpt>
      <trkpt lat="44.86943" lon="5.66842">
        <ele>568</ele>
        <time>2019-03-24T11:36:23+01:00</time>
      </trkpt>
      <trkpt lat="44.86919" lon="5.66847">
        <ele>562</ele>
        <time>2019-03-24T11:36:53+01:00</time>
      </trkpt>
      <trkpt lat="44.86897" lon="5.66838">
        <ele>555</ele>
        <time>2019-03-24T11:37:14+01:00</time>
      </trkpt>
      <trkpt lat="44.86896" lon="5.6682">
        <ele>554</ele>
        <time>2019-03-24T11:37:44+01:00</time>
      </trkpt>
      <trkpt lat="44.86876" lon="5.66813">
        <ele>547</ele>
        <time>2019-03-24T11:38:38+01:00</time>
      </trkpt>
      <trkpt lat="44.86866" lon="5.66824">
        <ele>544</ele>
        <time>2019-03-24T11:38:55+01:00</time>
      </trkpt>
      <trkpt lat="44.86866" lon="5.6687">
        <ele>546</ele>
        <time>2019-03-24T11:39:13+01:00</time>
      </trkpt>
      <trkpt lat="44.86863" lon="5.66904">
        <ele>547</ele>
        <time>2019-03-24T11:39:33+01:00</time>
      </trkpt>
      <trkpt lat="44.86858" lon="5.66936">
        <ele>546</ele>
        <time>2019-03-24T11:39:52+01:00</time>
      </trkpt>
      <trkpt lat="44.86855" lon="5.6697">
        <ele>546</ele>
        <time>2019-03-24T11:40:10+01:00</time>
      </trkpt>
      <trkpt lat="44.86843" lon="5.66996">
        <ele>544</ele>
        <time>2019-03-24T11:40:29+01:00</time>
      </trkpt>
      <trkpt lat="44.86834" lon="5.67026">
        <ele>541</ele>
        <time>2019-03-24T11:41:25+01:00</time>
      </trkpt>
      <trkpt lat="44.86823" lon="5.67054">
        <ele>525</ele>
        <time>2019-03-24T11:42:06+01:00</time>
      </trkpt>
      <trkpt lat="44.86813" lon="5.67083">
        <ele>494</ele>
        <time>2019-03-24T11:44:23+01:00</time>
      </trkpt>
      <trkpt lat="44.868" lon="5.67109">
        <ele>484</ele>
        <time>2019-03-24T11:44:43+01:00</time>
      </trkpt>
      <trkpt lat="44.8679" lon="5.67137">
        <ele>506</ele>
        <time>2019-03-24T11:45:03+01:00</time>
      </trkpt>
      <trkpt lat="44.86776" lon="5.67164">
        <ele>531</ele>
        <time>2019-03-24T11:45:23+01:00</time>
      </trkpt>
      <trkpt lat="44.86759" lon="5.67186">
        <ele>536</ele>
        <time>2019-03-24T11:45:40+01:00</time>
      </trkpt>
      <trkpt lat="44.86747" lon="5.67213">
        <ele>540</ele>
        <time>2019-03-24T11:46:50+01:00</time>
      </trkpt>
      <trkpt lat="44.86735" lon="5.6724">
        <ele>543</ele>
        <time>2019-03-24T11:47:06+01:00</time>
      </trkpt>
      <trkpt lat="44.86727" lon="5.67271">
        <ele>545</ele>
        <time>2019-03-24T11:47:27+01:00</time>
      </trkpt>
      <trkpt lat="44.86727" lon="5.67303">
        <ele>547</ele>
        <time>2019-03-24T11:47:48+01:00</time>
      </trkpt>
      <trkpt lat="44.86725" lon="5.67336">
        <ele>548</ele>
        <time>2019-03-24T11:48:09+01:00</time>
      </trkpt>
      <trkpt lat="44.86724" lon="5.6737">
        <ele>548</ele>
        <time>2019-03-24T11:48:25+01:00</time>
      </trkpt>
      <trkpt lat="44.86721" lon="5.67402">
        <ele>548</ele>
        <time>2019-03-24T11:48:41+01:00</time>
      </trkpt>
      <trkpt lat="44.86725" lon="5.67434">
        <ele>550</ele>
        <time>2019-03-24T11:49:09+01:00</time>
      </trkpt>
      <trkpt lat="44.86732" lon="5.67477">
        <ele>552</ele>
        <time>2019-03-24T11:49:27+01:00</time>
      </trkpt>
      <trkpt lat="44.86752" lon="5.67468">
        <ele>556</ele>
        <time>2019-03-24T11:49:59+01:00</time>
      </trkpt>
      <trkpt lat="44.86774" lon="5.67469">
        <ele>562</ele>
        <time>2019-03-24T11:50:19+01:00</time>
      </trkpt>
      <trkpt lat="44.86797" lon="5.67461">
        <ele>568</ele>
        <time>2019-03-24T11:50:42+01:00</time>
      </trkpt>
      <trkpt lat="44.86817" lon="5.67445">
        <ele>570</ele>
        <time>2019-03-24T11:51:01+01:00</time>
      </trkpt>
      <trkpt lat="44.86833" lon="5.67414">
        <ele>570</ele>
        <time>2019-03-24T11:51:18+01:00</time>
      </trkpt>
      <trkpt lat="44.86861" lon="5.67392">
        <ele>568</ele>
        <time>2019-03-24T11:51:50+01:00</time>
      </trkpt>
      <trkpt lat="44.86876" lon="5.67414">
        <ele>573</ele>
        <time>2019-03-24T11:52:18+01:00</time>
      </trkpt>
      <trkpt lat="44.86898" lon="5.67399">
        <ele>574</ele>
        <time>2019-03-24T11:52:31+01:00</time>
      </trkpt>
      <trkpt lat="44.86919" lon="5.67393">
        <ele>574</ele>
        <time>2019-03-24T11:52:55+01:00</time>
      </trkpt>
      <trkpt lat="44.86931" lon="5.67403">
        <ele>576</ele>
        <time>2021-08-31T00:04:25+02:00</time>
      </trkpt>
      <trkpt lat="44.86943" lon="5.67402">
        <ele>575</ele>
        <time>2019-03-24T11:53:17+01:00</time>
      </trkpt>
      <trkpt lat="44.86968" lon="5.67401">
        <ele>574</ele>
        <time>2019-03-24T11:53:39+01:00</time>
      </trkpt>
      <trkpt lat="44.8699" lon="5.67414">
        <ele>575</ele>
        <time>2019-03-24T11:53:53+01:00</time>
      </trkpt>
      <trkpt lat="44.8701" lon="5.67424">
        <ele>572</ele>
        <time>2019-03-24T11:54:26+01:00</time>
      </trkpt>
      <trkpt lat="44.86991" lon="5.67464">
        <ele>578</ele>
        <time>2019-03-24T11:54:51+01:00</time>
      </trkpt>
      <trkpt lat="44.86976" lon="5.67489">
        <ele>583</ele>
        <time>2019-03-24T11:55:13+01:00</time>
      </trkpt>
      <trkpt lat="44.8696" lon="5.67512">
        <ele>587</ele>
        <time>2019-03-24T11:55:31+01:00</time>
      </trkpt>
      <trkpt lat="44.86955" lon="5.67543">
        <ele>587</ele>
        <time>2019-03-24T11:55:49+01:00</time>
      </trkpt>
      <trkpt lat="44.86959" lon="5.67575">
        <ele>584</ele>
        <time>2019-03-24T11:56:11+01:00</time>
      </trkpt>
      <trkpt lat="44.86954" lon="5.67607">
        <ele>584</ele>
        <time>2019-03-24T11:56:29+01:00</time>
      </trkpt>
      <trkpt lat="44.8694" lon="5.67633">
        <ele>583</ele>
        <time>2019-03-24T11:56:47+01:00</time>
      </trkpt>
      <trkpt lat="44.86929" lon="5.67662">
        <ele>582</ele>
        <time>2019-03-24T11:57:08+01:00</time>
      </trkpt>
      <trkpt lat="44.86913" lon="5.67685">
        <ele>583</ele>
        <time>2019-03-24T11:57:25+01:00</time>
      </trkpt>
      <trkpt lat="44.86899" lon="5.67712">
        <ele>587</ele>
        <time>2019-03-24T11:57:43+01:00</time>
      </trkpt>
      <trkpt lat="44.86888" lon="5.6774">
        <ele>590</ele>
        <time>2019-03-24T11:58:05+01:00</time>
      </trkpt>
      <trkpt lat="44.86876" lon="5.67768">
        <ele>593</ele>
        <time>2019-03-24T11:58:26+01:00</time>
      </trkpt>
      <trkpt lat="44.86865" lon="5.67797">
        <ele>597</ele>
        <time>2019-03-24T11:58:48+01:00</time>
      </trkpt>
      <trkpt lat="44.86853" lon="5.67825">
        <ele>598</ele>
        <time>2019-03-24T11:59:08+01:00</time>
      </trkpt>
      <trkpt lat="44.86843" lon="5.67853">
        <ele>599</ele>
        <time>2019-03-24T11:59:29+01:00</time>
      </trkpt>
      <trkpt lat="44.86825" lon="5.67871">
        <ele>600</ele>
        <time>2019-03-24T11:59:46+01:00</time>
      </trkpt>
      <trkpt lat="44.86814" lon="5.67906">
        <ele>599</ele>
        <time>2019-03-24T12:00:02+01:00</time>
      </trkpt>
      <trkpt lat="44.86799" lon="5.67931">
        <ele>600</ele>
        <time>2019-03-24T12:00:19+01:00</time>
      </trkpt>
      <trkpt lat="44.86784" lon="5.67956">
        <ele>600</ele>
        <time>2019-03-24T12:00:38+01:00</time>
      </trkpt>
      <trkpt lat="44.86769" lon="5.6798">
        <ele>601</ele>
        <time>2019-03-24T12:00:54+01:00</time>
      </trkpt>
      <trkpt lat="44.86754" lon="5.68006">
        <ele>605</ele>
        <time>2019-03-24T12:01:11+01:00</time>
      </trkpt>
      <trkpt lat="44.8674" lon="5.68032">
        <ele>608</ele>
        <time>2019-03-24T12:01:27+01:00</time>
      </trkpt>
      <trkpt lat="44.86727" lon="5.68058">
        <ele>614</ele>
        <time>2019-03-24T12:01:49+01:00</time>
      </trkpt>
      <trkpt lat="44.8672" lon="5.68089">
        <ele>619</ele>
        <time>2019-03-24T12:02:08+01:00</time>
      </trkpt>
      <trkpt lat="44.86712" lon="5.68118">
        <ele>620</ele>
        <time>2019-03-24T12:02:35+01:00</time>
      </trkpt>
      <trkpt lat="44.8669" lon="5.68141">
        <ele>625</ele>
        <time>2019-03-24T12:03:00+01:00</time>
      </trkpt>
      <trkpt lat="44.86683" lon="5.68177">
        <ele>629</ele>
        <time>2019-03-24T12:30:44+01:00</time>
      </trkpt>
      <trkpt lat="44.86678" lon="5.68208">
        <ele>633</ele>
        <time>2019-03-24T12:31:14+01:00</time>
      </trkpt>
      <trkpt lat="44.86666" lon="5.68236">
        <ele>639</ele>
        <time>2019-03-24T12:31:45+01:00</time>
      </trkpt>
      <trkpt lat="44.86651" lon="5.68261">
        <ele>636</ele>
        <time>2019-03-24T12:32:00+01:00</time>
      </trkpt>
      <trkpt lat="44.86636" lon="5.68284">
        <ele>637</ele>
        <time>2019-03-24T12:32:20+01:00</time>
      </trkpt>
      <trkpt lat="44.86618" lon="5.68305">
        <ele>639</ele>
        <time>2019-03-24T12:32:39+01:00</time>
      </trkpt>
      <trkpt lat="44.86596" lon="5.68312">
        <ele>638</ele>
        <time>2019-03-24T12:32:56+01:00</time>
      </trkpt>
      <trkpt lat="44.86572" lon="5.68321">
        <ele>637</ele>
        <time>2019-03-24T12:33:15+01:00</time>
      </trkpt>
      <trkpt lat="44.86566" lon="5.68353">
        <ele>640</ele>
        <time>2019-03-24T12:33:36+01:00</time>
      </trkpt>
      <trkpt lat="44.86545" lon="5.68371">
        <ele>637</ele>
        <time>2019-03-24T12:33:53+01:00</time>
      </trkpt>
      <trkpt lat="44.86533" lon="5.68398">
        <ele>639</ele>
        <time>2019-03-24T12:34:10+01:00</time>
      </trkpt>
      <trkpt lat="44.86512" lon="5.68414">
        <ele>637</ele>
        <time>2019-03-24T12:34:28+01:00</time>
      </trkpt>
      <trkpt lat="44.86503" lon="5.68441">
        <ele>638</ele>
        <time>2019-03-24T12:34:44+01:00</time>
      </trkpt>
      <trkpt lat="44.86489" lon="5.68468">
        <ele>637</ele>
        <time>2019-03-24T12:35:03+01:00</time>
      </trkpt>
      <trkpt lat="44.86476" lon="5.68494">
        <ele>635</ele>
        <time>2019-03-24T12:35:21+01:00</time>
      </trkpt>
      <trkpt lat="44.86459" lon="5.6852">
        <ele>634</ele>
        <time>2019-03-24T12:35:36+01:00</time>
      </trkpt>
      <trkpt lat="44.86455" lon="5.68553">
        <ele>639</ele>
        <time>2019-03-24T12:36:03+01:00</time>
      </trkpt>
      <trkpt lat="44.86459" lon="5.68585">
        <ele>643</ele>
        <time>2019-03-24T12:36:29+01:00</time>
      </trkpt>
      <trkpt lat="44.86454" lon="5.68617">
        <ele>648</ele>
        <time>2019-03-24T12:36:49+01:00</time>
      </trkpt>
      <trkpt lat="44.86447" lon="5.68648">
        <ele>651</ele>
        <time>2019-03-24T12:37:15+01:00</time>
      </trkpt>
      <trkpt lat="44.86437" lon="5.68676">
        <ele>655</ele>
        <time>2019-03-24T12:37:38+01:00</time>
      </trkpt>
      <trkpt lat="44.86422" lon="5.68703">
        <ele>660</ele>
        <time>2019-03-24T12:37:52+01:00</time>
      </trkpt>
      <trkpt lat="44.86411" lon="5.68731">
        <ele>663</ele>
        <time>2019-03-24T12:38:15+01:00</time>
      </trkpt>
      <trkpt lat="44.8639" lon="5.68745">
        <ele>662</ele>
        <time>2019-03-24T12:38:40+01:00</time>
      </trkpt>
      <trkpt lat="44.86376" lon="5.68771">
        <ele>664</ele>
        <time>2019-03-24T12:39:03+01:00</time>
      </trkpt>
      <trkpt lat="44.8636" lon="5.68795">
        <ele>664</ele>
        <time>2019-03-24T12:39:29+01:00</time>
      </trkpt>
      <trkpt lat="44.86344" lon="5.6882">
        <ele>667</ele>
        <time>2019-03-24T12:39:48+01:00</time>
      </trkpt>
      <trkpt lat="44.86327" lon="5.68841">
        <ele>669</ele>
        <time>2019-03-24T12:40:08+01:00</time>
      </trkpt>
      <trkpt lat="44.86306" lon="5.68853">
        <ele>669</ele>
        <time>2019-03-24T12:40:27+01:00</time>
      </trkpt>
      <trkpt lat="44.86285" lon="5.68864">
        <ele>673</ele>
        <time>2019-03-24T12:40:54+01:00</time>
      </trkpt>
      <trkpt lat="44.86264" lon="5.68878">
        <ele>679</ele>
        <time>2019-03-24T12:41:17+01:00</time>
      </trkpt>
      <trkpt lat="44.8625" lon="5.68905">
        <ele>689</ele>
        <time>2019-03-24T12:42:11+01:00</time>
      </trkpt>
      <trkpt lat="44.86243" lon="5.68927">
        <ele>695</ele>
        <time>2021-08-31T00:09:40+02:00</time>
      </trkpt>
      <trkpt lat="44.86262" lon="5.68932">
        <ele>695</ele>
        <time>2019-03-24T12:42:49+01:00</time>
      </trkpt>
      <trkpt lat="44.86285" lon="5.68929">
        <ele>692</ele>
        <time>2019-03-24T12:43:05+01:00</time>
      </trkpt>
      <trkpt lat="44.86308" lon="5.68925">
        <ele>690</ele>
        <time>2019-03-24T12:43:22+01:00</time>
      </trkpt>
      <trkpt lat="44.86329" lon="5.6891">
        <ele>689</ele>
        <time>2019-03-24T12:43:45+01:00</time>
      </trkpt>
      <trkpt lat="44.8635" lon="5.68898">
        <ele>686</ele>
        <time>2019-03-24T12:44:05+01:00</time>
      </trkpt>
      <trkpt lat="44.86374" lon="5.68897">
        <ele>683</ele>
        <time>2019-03-24T12:44:27+01:00</time>
      </trkpt>
      <trkpt lat="44.86395" lon="5.68909">
        <ele>677</ele>
        <time>2019-03-24T12:44:57+01:00</time>
      </trkpt>
      <trkpt lat="44.86413" lon="5.68927">
        <ele>670</ele>
        <time>2019-03-24T12:45:21+01:00</time>
      </trkpt>
      <trkpt lat="44.86427" lon="5.68952">
        <ele>668</ele>
        <time>2019-03-24T12:45:44+01:00</time>
      </trkpt>
      <trkpt lat="44.86445" lon="5.68972">
        <ele>665</ele>
        <time>2019-03-24T12:46:01+01:00</time>
      </trkpt>
      <trkpt lat="44.86461" lon="5.68995">
        <ele>662</ele>
        <time>2019-03-24T12:46:21+01:00</time>
      </trkpt>
      <trkpt lat="44.86478" lon="5.69016">
        <ele>659</ele>
        <time>2019-03-24T12:46:44+01:00</time>
      </trkpt>
      <trkpt lat="44.86501" lon="5.69028">
        <ele>655</ele>
        <time>2019-03-24T12:47:08+01:00</time>
      </trkpt>
      <trkpt lat="44.86522" lon="5.69041">
        <ele>651</ele>
        <time>2019-03-24T12:47:26+01:00</time>
      </trkpt>
      <trkpt lat="44.86539" lon="5.69055">
        <ele>648</ele>
        <time>2021-08-31T00:10:55+02:00</time>
      </trkpt>
      <trkpt lat="44.86528" lon="5.69072">
        <ele>648</ele>
        <time>2019-03-24T12:47:58+01:00</time>
      </trkpt>
      <trkpt lat="44.86514" lon="5.69099">
        <ele>649</ele>
        <time>2019-03-24T12:48:13+01:00</time>
      </trkpt>
      <trkpt lat="44.86502" lon="5.69127">
        <ele>649</ele>
        <time>2019-03-24T12:48:30+01:00</time>
      </trkpt>
      <trkpt lat="44.86483" lon="5.69147">
        <ele>652</ele>
        <time>2019-03-24T12:48:52+01:00</time>
      </trkpt>
      <trkpt lat="44.86462" lon="5.69162">
        <ele>655</ele>
        <time>2019-03-24T12:49:08+01:00</time>
      </trkpt>
      <trkpt lat="44.86443" lon="5.69181">
        <ele>657</ele>
        <time>2019-03-24T12:49:24+01:00</time>
      </trkpt>
      <trkpt lat="44.86424" lon="5.69201">
        <ele>659</ele>
        <time>2019-03-24T12:49:43+01:00</time>
      </trkpt>
      <trkpt lat="44.86404" lon="5.69217">
        <ele>661</ele>
        <time>2019-03-24T12:50:03+01:00</time>
      </trkpt>
      <trkpt lat="44.86385" lon="5.69236">
        <ele>663</ele>
        <time>2019-03-24T12:50:24+01:00</time>
      </trkpt>
      <trkpt lat="44.86368" lon="5.69258">
        <ele>664</ele>
        <time>2019-03-24T12:50:44+01:00</time>
      </trkpt>
      <trkpt lat="44.86354" lon="5.69284">
        <ele>666</ele>
        <time>2019-03-24T12:51:03+01:00</time>
      </trkpt>
      <trkpt lat="44.86348" lon="5.69316">
        <ele>668</ele>
        <time>2019-03-24T12:51:21+01:00</time>
      </trkpt>
      <trkpt lat="44.86345" lon="5.69347">
        <ele>667</ele>
        <time>2019-03-24T12:51:38+01:00</time>
      </trkpt>
      <trkpt lat="44.86347" lon="5.69381">
        <ele>665</ele>
        <time>2019-03-24T12:52:00+01:00</time>
      </trkpt>
      <trkpt lat="44.86362" lon="5.69408">
        <ele>660</ele>
        <time>2019-03-24T12:52:14+01:00</time>
      </trkpt>
      <trkpt lat="44.86385" lon="5.6941">
        <ele>656</ele>
        <time>2019-03-24T12:52:32+01:00</time>
      </trkpt>
      <trkpt lat="44.86408" lon="5.69408">
        <ele>652</ele>
        <time>2019-03-24T12:52:43+01:00</time>
      </trkpt>
      <trkpt lat="44.86431" lon="5.69412">
        <ele>649</ele>
        <time>2019-03-24T12:53:02+01:00</time>
      </trkpt>
      <trkpt lat="44.86451" lon="5.69429">
        <ele>644</ele>
        <time>2019-03-24T12:53:24+01:00</time>
      </trkpt>
      <trkpt lat="44.8647" lon="5.69451">
        <ele>640</ele>
        <time>2019-03-24T12:53:40+01:00</time>
      </trkpt>
      <trkpt lat="44.86489" lon="5.69469">
        <ele>636</ele>
        <time>2019-03-24T12:53:56+01:00</time>
      </trkpt>
      <trkpt lat="44.86507" lon="5.6949">
        <ele>631</ele>
        <time>2019-03-24T12:54:13+01:00</time>
      </trkpt>
      <trkpt lat="44.86527" lon="5.69509">
        <ele>628</ele>
        <time>2019-03-24T12:54:27+01:00</time>
      </trkpt>
      <trkpt lat="44.86547" lon="5.69521">
        <ele>625</ele>
        <time>2019-03-24T12:54:44+01:00</time>
      </trkpt>
      <trkpt lat="44.86568" lon="5.69527">
        <ele>623</ele>
        <time>2019-03-24T12:54:57+01:00</time>
      </trkpt>
      <trkpt lat="44.86591" lon="5.6953">
        <ele>622</ele>
        <time>2019-03-24T12:55:11+01:00</time>
      </trkpt>
      <trkpt lat="44.86607" lon="5.69507">
        <ele>624</ele>
        <time>2019-03-24T12:55:26+01:00</time>
      </trkpt>
      <trkpt lat="44.86621" lon="5.69479">
        <ele>623</ele>
        <time>2019-03-24T12:55:40+01:00</time>
      </trkpt>
      <trkpt lat="44.86634" lon="5.69473">
        <ele>620</ele>
        <time>2021-08-31T00:13:20+02:00</time>
      </trkpt>
      <trkpt lat="44.86632" lon="5.69507">
        <ele>619</ele>
        <time>2019-03-24T12:56:13+01:00</time>
      </trkpt>
      <trkpt lat="44.86624" lon="5.69539">
        <ele>618</ele>
        <time>2019-03-24T12:56:29+01:00</time>
      </trkpt>
      <trkpt lat="44.86614" lon="5.6957">
        <ele>616</ele>
        <time>2019-03-24T12:56:45+01:00</time>
      </trkpt>
      <trkpt lat="44.86603" lon="5.69596">
        <ele>612</ele>
        <time>2019-03-24T12:56:58+01:00</time>
      </trkpt>
      <trkpt lat="44.86602" lon="5.69658">
        <ele>601</ele>
        <time>2019-03-24T12:57:55+01:00</time>
      </trkpt>
      <trkpt lat="44.86583" lon="5.69676">
        <ele>598</ele>
        <time>2019-03-24T12:58:09+01:00</time>
      </trkpt>
      <trkpt lat="44.86561" lon="5.69688">
        <ele>596</ele>
        <time>2019-03-24T12:58:29+01:00</time>
      </trkpt>
      <trkpt lat="44.86538" lon="5.69687">
        <ele>600</ele>
        <time>2019-03-24T12:58:52+01:00</time>
      </trkpt>
      <trkpt lat="44.8652" lon="5.69703">
        <ele>602</ele>
        <time>2019-03-24T12:59:22+01:00</time>
      </trkpt>
      <trkpt lat="44.86523" lon="5.69747">
        <ele>593</ele>
        <time>2019-03-24T12:59:42+01:00</time>
      </trkpt>
      <trkpt lat="44.86533" lon="5.69777">
        <ele>586</ele>
        <time>2019-03-24T13:00:08+01:00</time>
      </trkpt>
      <trkpt lat="44.86531" lon="5.69817">
        <ele>591</ele>
        <time>2019-03-24T13:00:22+01:00</time>
      </trkpt>
      <trkpt lat="44.86552" lon="5.69818">
        <ele>583</ele>
        <time>2019-03-24T13:00:49+01:00</time>
      </trkpt>
      <trkpt lat="44.86559" lon="5.69834">
        <ele>583</ele>
        <time>2021-08-31T00:14:30+02:00</time>
      </trkpt>
      <trkpt lat="44.86558" lon="5.69851">
        <ele>587</ele>
        <time>2019-03-24T13:01:20+01:00</time>
      </trkpt>
      <trkpt lat="44.86578" lon="5.69869">
        <ele>586</ele>
        <time>2019-03-24T13:01:49+01:00</time>
      </trkpt>
      <trkpt lat="44.86593" lon="5.69892">
        <ele>586</ele>
        <time>2019-03-24T13:02:09+01:00</time>
      </trkpt>
      <trkpt lat="44.86611" lon="5.69909">
        <ele>586</ele>
        <time>2019-03-24T13:02:29+01:00</time>
      </trkpt>
      <trkpt lat="44.86626" lon="5.69938">
        <ele>588</ele>
        <time>2019-03-24T13:02:50+01:00</time>
      </trkpt>
      <trkpt lat="44.86643" lon="5.6996">
        <ele>588</ele>
        <time>2019-03-24T13:03:13+01:00</time>
      </trkpt>
      <trkpt lat="44.86645" lon="5.6999">
        <ele>591</ele>
        <time>2019-03-24T13:03:30+01:00</time>
      </trkpt>
      <trkpt lat="44.86642" lon="5.70012">
        <ele>595</ele>
        <time>2021-08-31T00:15:10+02:00</time>
      </trkpt>
      <trkpt lat="44.86659" lon="5.70041">
        <ele>591</ele>
        <time>2019-03-24T13:03:54+01:00</time>
      </trkpt>
      <trkpt lat="44.86673" lon="5.70034">
        <ele>585</ele>
        <time>2019-03-24T13:04:13+01:00</time>
      </trkpt>
      <trkpt lat="44.8669" lon="5.70028">
        <ele>579</ele>
        <time>2021-08-31T00:15:25+02:00</time>
      </trkpt>
      <trkpt lat="44.86696" lon="5.70007">
        <ele>576</ele>
        <time>2021-08-31T00:15:30+02:00</time>
      </trkpt>
      <trkpt lat="44.86704" lon="5.70012">
        <ele>573</ele>
        <time>2019-03-24T13:04:43+01:00</time>
      </trkpt>
      <trkpt lat="44.86704" lon="5.70044">
        <ele>573</ele>
        <time>2019-03-24T13:05:39+01:00</time>
      </trkpt>
      <trkpt lat="44.86723" lon="5.70053">
        <ele>564</ele>
        <time>2019-03-24T13:06:11+01:00</time>
      </trkpt>
      <trkpt lat="44.86725" lon="5.70085">
        <ele>559</ele>
        <time>2019-03-24T13:06:29+01:00</time>
      </trkpt>
      <trkpt lat="44.86727" lon="5.70117">
        <ele>554</ele>
        <time>2019-03-24T13:06:45+01:00</time>
      </trkpt>
      <trkpt lat="44.86725" lon="5.70149">
        <ele>554</ele>
        <time>2019-03-24T13:07:06+01:00</time>
      </trkpt>
      <trkpt lat="44.86728" lon="5.70182">
        <ele>551</ele>
        <time>2019-03-24T13:07:21+01:00</time>
      </trkpt>
      <trkpt lat="44.86739" lon="5.7021">
        <ele>546</ele>
        <time>2019-03-24T13:07:37+01:00</time>
      </trkpt>
      <trkpt lat="44.86746" lon="5.70242">
        <ele>543</ele>
        <time>2019-03-24T13:07:52+01:00</time>
      </trkpt>
      <trkpt lat="44.86768" lon="5.70261">
        <ele>530</ele>
        <time>2019-03-24T13:08:10+01:00</time>
      </trkpt>
      <trkpt lat="44.8678" lon="5.70283">
        <ele>524</ele>
        <time>2019-03-24T13:08:24+01:00</time>
      </trkpt>
      <trkpt lat="44.86777" lon="5.70317">
        <ele>531</ele>
        <time>2019-03-24T13:08:49+01:00</time>
      </trkpt>
      <trkpt lat="44.86803" lon="5.70343">
        <ele>525</ele>
        <time>2019-03-24T13:09:03+01:00</time>
      </trkpt>
      <trkpt lat="44.86822" lon="5.70362">
        <ele>520</ele>
        <time>2019-03-24T13:09:24+01:00</time>
      </trkpt>
      <trkpt lat="44.86838" lon="5.70385">
        <ele>515</ele>
        <time>2019-03-24T13:09:44+01:00</time>
      </trkpt>
      <trkpt lat="44.86837" lon="5.70413">
        <ele>517</ele>
        <time>2019-03-24T13:10:03+01:00</time>
      </trkpt>
      <trkpt lat="44.86834" lon="5.70448">
        <ele>515</ele>
        <time>2019-03-24T13:10:16+01:00</time>
      </trkpt>
      <trkpt lat="44.86841" lon="5.70479">
        <ele>509</ele>
        <time>2019-03-24T13:10:32+01:00</time>
      </trkpt>
      <trkpt lat="44.8685" lon="5.70513">
        <ele>502</ele>
        <time>2019-03-24T13:10:52+01:00</time>
      </trkpt>
      <trkpt lat="44.8686" lon="5.70539">
        <ele>496</ele>
        <time>2019-03-24T13:11:10+01:00</time>
      </trkpt>
      <trkpt lat="44.86858" lon="5.70557">
        <ele>492</ele>
        <time>2021-08-31T00:17:15+02:00</time>
      </trkpt>
      <trkpt lat="44.8684" lon="5.70555">
        <ele>496</ele>
        <time>2019-03-24T13:11:27+01:00</time>
      </trkpt>
      <trkpt lat="44.8683" lon="5.70583">
        <ele>502</ele>
        <time>2019-03-24T13:11:55+01:00</time>
      </trkpt>
      <trkpt lat="44.86817" lon="5.70614">
        <ele>512</ele>
        <time>2019-03-24T13:12:36+01:00</time>
      </trkpt>
      <trkpt lat="44.86806" lon="5.70641">
        <ele>518</ele>
        <time>2019-03-24T13:12:54+01:00</time>
      </trkpt>
      <trkpt lat="44.86797" lon="5.70671">
        <ele>525</ele>
        <time>2019-03-24T13:13:19+01:00</time>
      </trkpt>
      <trkpt lat="44.86793" lon="5.70705">
        <ele>529</ele>
        <time>2019-03-24T13:13:45+01:00</time>
      </trkpt>
      <trkpt lat="44.86789" lon="5.70735">
        <ele>533</ele>
        <time>2019-03-24T13:13:59+01:00</time>
      </trkpt>
      <trkpt lat="44.86788" lon="5.70763">
        <ele>536</ele>
        <time>2019-03-24T13:14:21+01:00</time>
      </trkpt>
      <trkpt lat="44.86793" lon="5.70793">
        <ele>533</ele>
        <time>2019-03-24T13:14:50+01:00</time>
      </trkpt>
      <trkpt lat="44.86813" lon="5.70808">
        <ele>517</ele>
        <time>2019-03-24T13:15:08+01:00</time>
      </trkpt>
      <trkpt lat="44.86833" lon="5.70826">
        <ele>495</ele>
        <time>2019-03-24T13:15:30+01:00</time>
      </trkpt>
      <trkpt lat="44.86853" lon="5.70844">
        <ele>482</ele>
        <time>2019-03-24T13:15:48+01:00</time>
      </trkpt>
      <trkpt lat="44.86871" lon="5.70863">
        <ele>480</ele>
        <time>2019-03-24T13:17:22+01:00</time>
      </trkpt>
      <trkpt lat="44.86891" lon="5.70879">
        <ele>480</ele>
        <time>2019-03-24T13:17:44+01:00</time>
      </trkpt>
      <trkpt lat="44.86912" lon="5.70894">
        <ele>481</ele>
        <time>2019-03-24T13:18:02+01:00</time>
      </trkpt>
      <trkpt lat="44.86933" lon="5.70906">
        <ele>495</ele>
        <time>2019-03-24T13:18:24+01:00</time>
      </trkpt>
      <trkpt lat="44.86954" lon="5.70922">
        <ele>511</ele>
        <time>2019-03-24T13:18:45+01:00</time>
      </trkpt>
      <trkpt lat="44.86971" lon="5.70943">
        <ele>522</ele>
        <time>2019-03-24T13:19:07+01:00</time>
      </trkpt>
      <trkpt lat="44.86995" lon="5.70949">
        <ele>526</ele>
        <time>2019-03-24T13:19:56+01:00</time>
      </trkpt>
      <trkpt lat="44.87011" lon="5.70919">
        <ele>520</ele>
        <time>2019-03-24T13:20:17+01:00</time>
      </trkpt>
      <trkpt lat="44.87026" lon="5.70892">
        <ele>520</ele>
        <time>2019-03-24T13:20:35+01:00</time>
      </trkpt>
      <trkpt lat="44.87034" lon="5.70869">
        <ele>522</ele>
        <time>2019-03-24T13:20:52+01:00</time>
      </trkpt>
      <trkpt lat="44.87029" lon="5.70836">
        <ele>516</ele>
        <time>2019-03-24T13:21:07+01:00</time>
      </trkpt>
      <trkpt lat="44.87047" lon="5.70826">
        <ele>513</ele>
        <time>2021-08-31T00:19:15+02:00</time>
      </trkpt>
      <trkpt lat="44.87064" lon="5.7084">
        <ele>517</ele>
        <time>2019-03-24T13:21:29+01:00</time>
      </trkpt>
      <trkpt lat="44.87085" lon="5.70855">
        <ele>516</ele>
        <time>2019-03-24T13:21:49+01:00</time>
      </trkpt>
      <trkpt lat="44.87107" lon="5.70851">
        <ele>520</ele>
        <time>2019-03-24T13:22:05+01:00</time>
      </trkpt>
      <trkpt lat="44.87105" lon="5.70818">
        <ele>514</ele>
        <time>2019-03-24T13:22:24+01:00</time>
      </trkpt>
      <trkpt lat="44.87127" lon="5.70802">
        <ele>514</ele>
        <time>2019-03-24T13:22:41+01:00</time>
      </trkpt>
      <trkpt lat="44.8715" lon="5.70797">
        <ele>515</ele>
        <time>2019-03-24T13:22:59+01:00</time>
      </trkpt>
      <trkpt lat="44.87168" lon="5.7079">
        <ele>518</ele>
        <time>2019-03-24T13:23:12+01:00</time>
      </trkpt>
      <trkpt lat="44.87167" lon="5.70765">
        <ele>519</ele>
        <time>2019-03-24T13:23:30+01:00</time>
      </trkpt>
      <trkpt lat="44.87165" lon="5.70733">
        <ele>525</ele>
        <time>2019-03-24T13:23:44+01:00</time>
      </trkpt>
      <trkpt lat="44.87146" lon="5.70714">
        <ele>522</ele>
        <time>2019-03-24T13:24:04+01:00</time>
      </trkpt>
      <trkpt lat="44.87135" lon="5.70697">
        <ele>520</ele>
        <time>2021-08-31T00:20:10+02:00</time>
      </trkpt>
      <trkpt lat="44.87137" lon="5.70685">
        <ele>521</ele>
        <time>2019-03-24T13:24:23+01:00</time>
      </trkpt>
      <trkpt lat="44.87155" lon="5.70665">
        <ele>527</ele>
        <time>2019-03-24T13:24:41+01:00</time>
      </trkpt>
      <trkpt lat="44.87171" lon="5.70645">
        <ele>529</ele>
        <time>2019-03-24T13:25:03+01:00</time>
      </trkpt>
      <trkpt lat="44.8719" lon="5.70616">
        <ele>532</ele>
        <time>2019-03-24T13:25:23+01:00</time>
      </trkpt>
      <trkpt lat="44.87201" lon="5.70587">
        <ele>530</ele>
        <time>2019-03-24T13:25:44+01:00</time>
      </trkpt>
      <trkpt lat="44.87212" lon="5.70564">
        <ele>530</ele>
        <time>2019-03-24T13:25:58+01:00</time>
      </trkpt>
      <trkpt lat="44.87224" lon="5.70537">
        <ele>533</ele>
        <time>2019-03-24T13:26:10+01:00</time>
      </trkpt>
      <trkpt lat="44.87226" lon="5.70507">
        <ele>535</ele>
        <time>2019-03-24T13:26:31+01:00</time>
      </trkpt>
      <trkpt lat="44.87216" lon="5.70469">
        <ele>530</ele>
        <time>2019-03-24T13:26:48+01:00</time>
      </trkpt>
      <trkpt lat="44.87235" lon="5.70442">
        <ele>534</ele>
        <time>2019-03-24T13:27:11+01:00</time>
      </trkpt>
      <trkpt lat="44.87256" lon="5.7043">
        <ele>541</ele>
        <time>2019-03-24T13:27:31+01:00</time>
      </trkpt>
      <trkpt lat="44.87278" lon="5.70424">
        <ele>546</ele>
        <time>2019-03-24T13:27:48+01:00</time>
      </trkpt>
      <trkpt lat="44.87301" lon="5.7042">
        <ele>549</ele>
        <time>2019-03-24T13:28:14+01:00</time>
      </trkpt>
      <trkpt lat="44.87316" lon="5.7041">
        <ele>552</ele>
        <time>2021-08-31T00:21:20+02:00</time>
      </trkpt>
      <trkpt lat="44.87304" lon="5.70387">
        <ele>551</ele>
        <time>2019-03-24T13:29:05+01:00</time>
      </trkpt>
      <trkpt lat="44.87293" lon="5.70356">
        <ele>552</ele>
        <time>2019-03-24T13:29:22+01:00</time>
      </trkpt>
      <trkpt lat="44.87279" lon="5.7033">
        <ele>551</ele>
        <time>2019-03-24T13:29:38+01:00</time>
      </trkpt>
      <trkpt lat="44.87265" lon="5.70304">
        <ele>551</ele>
        <time>2019-03-24T13:29:53+01:00</time>
      </trkpt>
      <trkpt lat="44.87253" lon="5.70277">
        <ele>549</ele>
        <time>2019-03-24T13:30:11+01:00</time>
      </trkpt>
      <trkpt lat="44.8724" lon="5.7025">
        <ele>549</ele>
        <time>2019-03-24T13:30:26+01:00</time>
      </trkpt>
      <trkpt lat="44.87241" lon="5.70217">
        <ele>549</ele>
        <time>2019-03-24T13:30:44+01:00</time>
      </trkpt>
      <trkpt lat="44.87242" lon="5.70185">
        <ele>549</ele>
        <time>2019-03-24T13:31:06+01:00</time>
      </trkpt>
      <trkpt lat="44.87235" lon="5.70154">
        <ele>549</ele>
        <time>2019-03-24T13:31:25+01:00</time>
      </trkpt>
      <trkpt lat="44.87227" lon="5.70123">
        <ele>549</ele>
        <time>2019-03-24T13:31:40+01:00</time>
      </trkpt>
      <trkpt lat="44.87215" lon="5.70094">
        <ele>546</ele>
        <time>2019-03-24T13:31:56+01:00</time>
      </trkpt>
      <trkpt lat="44.87197" lon="5.7006">
        <ele>540</ele>
        <time>2019-03-24T13:32:14+01:00</time>
      </trkpt>
      <trkpt lat="44.87208" lon="5.70046">
        <ele>537</ele>
        <time>2021-08-31T00:22:25+02:00</time>
      </trkpt>
      <trkpt lat="44.87218" lon="5.70044">
        <ele>537</ele>
        <time>2019-03-24T13:32:37+01:00</time>
      </trkpt>
      <trkpt lat="44.87241" lon="5.70041">
        <ele>538</ele>
        <time>2019-03-24T13:32:58+01:00</time>
      </trkpt>
      <trkpt lat="44.87264" lon="5.70044">
        <ele>542</ele>
        <time>2019-03-24T13:33:16+01:00</time>
      </trkpt>
      <trkpt lat="44.87288" lon="5.70041">
        <ele>543</ele>
        <time>2019-03-24T13:33:37+01:00</time>
      </trkpt>
      <trkpt lat="44.87311" lon="5.70042">
        <ele>545</ele>
        <time>2019-03-24T13:33:53+01:00</time>
      </trkpt>
      <trkpt lat="44.87334" lon="5.70042">
        <ele>548</ele>
        <time>2019-03-24T13:34:10+01:00</time>
      </trkpt>
    </trkseg>
  </trk>
</gpx>